sensor_id;sensor_type;location;lat;lon;timestamp;P1;durP1;ratioP1;P2;durP2;ratioP2
15814;SDS011;8008;50.024;8.172;2022-11-13T04:02:58;35.88;;;9.50;;
15814;SDS011;8008;50.024;8.172;2022-11-13T04:05:45;19.55;;;9.60;;
15814;SDS011;8008;50.024;8.172;2022-11-13T04:08:39;25.95;;;9.50;;
15814;SDS011;8008;50.024;8.172;2022-11-13T04:11:25;21.50;;;9.27;;
15814;SDS011;8008;50.024;8.172;2022-11-13T04:14:12;18.83;;;9.40;;
15814;SDS011;8008;50.024;8.172;2022-11-13T04:16:58;19.98;;;9.55;;
15814;SDS011;8008;50.024;8.172;2022-11-13T04:19:46;19.90;;;9.70;;
15814;SDS011;8008;50.024;8.172;2022-11-13T04:22:33;24.27;;;9.38;;
15814;SDS011;8008;50.024;8.172;2022-11-13T04:25:19;24.43;;;9.17;;
15814;SDS011;8008;50.024;8.172;2022-11-13T04:28:05;32.63;;;9.68;;
15814;SDS011;8008;50.024;8.172;2022-11-13T04:30:53;20.35;;;8.95;;
15814;SDS011;8008;50.024;8.172;2022-11-13T04:33:41;27.53;;;9.03;;
15814;SDS011;8008;50.024;8.172;2022-11-13T04:36:29;27.27;;;9.73;;
15814;SDS011;8008;50.024;8.172;2022-11-13T04:39:17;24.73;;;8.90;;
15814;SDS011;8008;50.024;8.172;2022-11-13T04:42:03;31.52;;;9.60;;
15814;SDS011;8008;50.024;8.172;2022-11-13T04:45:22;24.77;;;8.90;;
15814;SDS011;8008;50.024;8.172;2022-11-13T04:48:10;14.33;;;9.40;;
15814;SDS011;8008;50.024;8.172;2022-11-13T04:50:57;38.63;;;9.47;;
15814;SDS011;8008;50.024;8.172;2022-11-13T04:53:45;20.97;;;8.53;;
15814;SDS011;8008;50.024;8.172;2022-11-13T04:56:31;20.73;;;8.17;;
15814;SDS011;8008;50.024;8.172;2022-11-13T04:59:18;23.13;;;8.55;;
15814;SDS011;8008;50.024;8.172;2022-11-13T05:02:04;28.73;;;8.90;;
15814;SDS011;8008;50.024;8.172;2022-11-13T05:04:53;33.17;;;8.80;;
15814;SDS011;8008;50.024;8.172;2022-11-13T05:07:47;25.87;;;8.83;;
15814;SDS011;8008;50.024;8.172;2022-11-13T05:10:34;32.40;;;8.77;;
15814;SDS011;8008;50.024;8.172;2022-11-13T05:13:21;20.13;;;8.75;;
15814;SDS011;8008;50.024;8.172;2022-11-13T05:16:08;22.10;;;8.43;;
15814;SDS011;8008;50.024;8.172;2022-11-13T05:18:57;33.83;;;9.27;;
15814;SDS011;8008;50.024;8.172;2022-11-13T05:21:43;15.23;;;8.80;;
15814;SDS011;8008;50.024;8.172;2022-11-13T05:24:29;18.02;;;7.80;;
15814;SDS011;8008;50.024;8.172;2022-11-13T05:27:18;28.13;;;7.38;;
15814;SDS011;8008;50.024;8.172;2022-11-13T05:30:05;21.23;;;7.77;;
15814;SDS011;8008;50.024;8.172;2022-11-13T05:32:52;28.35;;;7.40;;
15814;SDS011;8008;50.024;8.172;2022-11-13T05:35:38;20.60;;;8.53;;
15814;SDS011;8008;50.024;8.172;2022-11-13T05:38:25;15.88;;;8.02;;
15814;SDS011;8008;50.024;8.172;2022-11-13T05:41:14;19.60;;;7.80;;
15814;SDS011;8008;50.024;8.172;2022-11-13T05:44:03;14.03;;;7.50;;
15814;SDS011;8008;50.024;8.172;2022-11-13T05:46:49;14.33;;;8.03;;
15814;SDS011;8008;50.024;8.172;2022-11-13T05:49:36;18.83;;;8.30;;
15814;SDS011;8008;50.024;8.172;2022-11-13T05:52:23;18.20;;;7.43;;
15814;SDS011;8008;50.024;8.172;2022-11-13T05:55:09;48.07;;;7.83;;
15814;SDS011;8008;50.024;8.172;2022-11-13T05:57:57;19.60;;;6.73;;
15814;SDS011;8008;50.024;8.172;2022-11-13T06:00:45;21.73;;;7.47;;
15814;SDS011;8008;50.024;8.172;2022-11-13T06:03:32;14.23;;;7.33;;
15814;SDS011;8008;50.024;8.172;2022-11-13T06:06:19;21.43;;;7.37;;
15814;SDS011;8008;50.024;8.172;2022-11-13T06:09:07;15.83;;;7.10;;
15814;SDS011;8008;50.024;8.172;2022-11-13T06:11:55;14.17;;;6.73;;
15814;SDS011;8008;50.024;8.172;2022-11-13T06:14:41;22.60;;;6.77;;
15814;SDS011;8008;50.024;8.172;2022-11-13T06:17:29;15.37;;;6.77;;
15814;SDS011;8008;50.024;8.172;2022-11-13T06:20:17;28.70;;;6.97;;
15814;SDS011;8008;50.024;8.172;2022-11-13T06:23:03;26.75;;;7.10;;
15814;SDS011;8008;50.024;8.172;2022-11-13T06:25:50;29.37;;;6.70;;
15814;SDS011;8008;50.024;8.172;2022-11-13T06:28:37;10.00;;;6.33;;
15814;SDS011;8008;50.024;8.172;2022-11-13T06:31:24;12.47;;;6.73;;
15814;SDS011;8008;50.024;8.172;2022-11-13T06:34:14;20.43;;;6.60;;
15814;SDS011;8008;50.024;8.172;2022-11-13T06:37:00;16.50;;;6.30;;
15814;SDS011;8008;50.024;8.172;2022-11-13T06:39:46;19.00;;;7.40;;
15814;SDS011;8008;50.024;8.172;2022-11-13T06:42:33;25.50;;;6.83;;
15814;SDS011;8008;50.024;8.172;2022-11-13T06:45:19;35.77;;;7.40;;
15814;SDS011;8008;50.024;8.172;2022-11-13T06:48:06;16.83;;;6.83;;
15814;SDS011;8008;50.024;8.172;2022-11-13T06:50:53;35.67;;;8.20;;
15814;SDS011;8008;50.024;8.172;2022-11-13T06:53:40;20.53;;;6.60;;
15814;SDS011;8008;50.024;8.172;2022-11-13T06:56:27;27.00;;;7.00;;
15814;SDS011;8008;50.024;8.172;2022-11-13T06:59:13;33.47;;;7.13;;
15814;SDS011;8008;50.024;8.172;2022-11-13T07:02:00;11.30;;;6.70;;
15814;SDS011;8008;50.024;8.172;2022-11-13T07:04:46;24.53;;;7.57;;
15814;SDS011;8008;50.024;8.172;2022-11-13T07:07:34;20.50;;;7.43;;
15814;SDS011;8008;50.024;8.172;2022-11-13T07:10:21;25.77;;;6.77;;
15814;SDS011;8008;50.024;8.172;2022-11-13T07:13:08;36.67;;;7.47;;
15814;SDS011;8008;50.024;8.172;2022-11-13T07:15:59;45.23;;;7.47;;
15814;SDS011;8008;50.024;8.172;2022-11-13T07:18:57;36.60;;;7.53;;
15814;SDS011;8008;50.024;8.172;2022-11-13T07:21:43;15.57;;;6.90;;
15814;SDS011;8008;50.024;8.172;2022-11-13T07:24:31;37.67;;;7.20;;
15814;SDS011;8008;50.024;8.172;2022-11-13T07:27:17;30.93;;;7.20;;
15814;SDS011;8008;50.024;8.172;2022-11-13T07:30:04;41.10;;;7.43;;
15814;SDS011;8008;50.024;8.172;2022-11-13T07:32:52;19.23;;;6.50;;
15814;SDS011;8008;50.024;8.172;2022-11-13T07:35:39;22.03;;;7.00;;
15814;SDS011;8008;50.024;8.172;2022-11-13T07:38:25;23.77;;;6.97;;
15814;SDS011;8008;50.024;8.172;2022-11-13T07:41:14;9.23;;;5.50;;
15814;SDS011;8008;50.024;8.172;2022-11-13T07:44:00;13.30;;;5.13;;
15814;SDS011;8008;50.024;8.172;2022-11-13T07:46:53;17.30;;;5.80;;
15814;SDS011;8008;50.024;8.172;2022-11-13T07:49:39;24.00;;;6.70;;
15814;SDS011;8008;50.024;8.172;2022-11-13T07:52:25;20.13;;;6.33;;
15814;SDS011;8008;50.024;8.172;2022-11-13T07:55:12;11.47;;;5.70;;
15814;SDS011;8008;50.024;8.172;2022-11-13T07:58:00;12.95;;;6.20;;
15814;SDS011;8008;50.024;8.172;2022-11-13T08:00:47;13.43;;;5.80;;
15814;SDS011;8008;50.024;8.172;2022-11-13T08:03:33;8.50;;;5.57;;
15814;SDS011;8008;50.024;8.172;2022-11-13T08:06:20;21.57;;;5.90;;
15814;SDS011;8008;50.024;8.172;2022-11-13T08:09:07;8.73;;;5.27;;
15814;SDS011;8008;50.024;8.172;2022-11-13T08:11:54;31.43;;;6.37;;
15814;SDS011;8008;50.024;8.172;2022-11-13T08:14:42;22.30;;;7.40;;
15814;SDS011;8008;50.024;8.172;2022-11-13T08:17:28;16.23;;;8.93;;
15814;SDS011;8008;50.024;8.172;2022-11-13T08:20:14;49.90;;;8.00;;
15814;SDS011;8008;50.024;8.172;2022-11-13T08:23:02;34.97;;;8.27;;
15814;SDS011;8008;50.024;8.172;2022-11-13T08:25:49;40.33;;;7.97;;
15814;SDS011;8008;50.024;8.172;2022-11-13T08:28:35;12.50;;;6.80;;
15814;SDS011;8008;50.024;8.172;2022-11-13T08:31:23;11.23;;;6.80;;
15814;SDS011;8008;50.024;8.172;2022-11-13T08:34:09;15.97;;;6.77;;
15814;SDS011;8008;50.024;8.172;2022-11-13T08:36:55;30.37;;;8.87;;
15814;SDS011;8008;50.024;8.172;2022-11-13T08:39:42;27.10;;;8.07;;
15814;SDS011;8008;50.024;8.172;2022-11-13T08:42:28;12.87;;;6.90;;
15814;SDS011;8008;50.024;8.172;2022-11-13T08:45:14;19.73;;;6.63;;
15814;SDS011;8008;50.024;8.172;2022-11-13T08:48:03;18.13;;;6.40;;
15814;SDS011;8008;50.024;8.172;2022-11-13T08:50:50;29.53;;;7.27;;
15814;SDS011;8008;50.024;8.172;2022-11-13T08:53:37;11.03;;;7.00;;
15814;SDS011;8008;50.024;8.172;2022-11-13T08:56:23;20.87;;;9.87;;
15814;SDS011;8008;50.024;8.172;2022-11-13T08:59:10;20.93;;;7.80;;
15814;SDS011;8008;50.024;8.172;2022-11-13T09:01:56;42.23;;;10.57;;
15814;SDS011;8008;50.024;8.172;2022-11-13T09:04:44;29.92;;;9.70;;
15814;SDS011;8008;50.024;8.172;2022-11-13T09:07:31;36.03;;;10.17;;
15814;SDS011;8008;50.024;8.172;2022-11-13T09:10:19;40.13;;;8.70;;
15814;SDS011;8008;50.024;8.172;2022-11-13T09:13:06;52.13;;;9.83;;
15814;SDS011;8008;50.024;8.172;2022-11-13T09:15:56;17.93;;;7.73;;
15814;SDS011;8008;50.024;8.172;2022-11-13T09:18:43;17.15;;;8.10;;
15814;SDS011;8008;50.024;8.172;2022-11-13T09:21:30;24.77;;;7.87;;
15814;SDS011;8008;50.024;8.172;2022-11-13T09:24:17;20.80;;;7.53;;
15814;SDS011;8008;50.024;8.172;2022-11-13T09:27:04;40.17;;;8.00;;
15814;SDS011;8008;50.024;8.172;2022-11-13T09:29:50;20.90;;;10.80;;
15814;SDS011;8008;50.024;8.172;2022-11-13T09:32:40;20.77;;;9.10;;
15814;SDS011;8008;50.024;8.172;2022-11-13T09:35:26;17.13;;;7.43;;
15814;SDS011;8008;50.024;8.172;2022-11-13T09:38:21;32.57;;;7.13;;
15814;SDS011;8008;50.024;8.172;2022-11-13T09:41:09;12.03;;;6.93;;
15814;SDS011;8008;50.024;8.172;2022-11-13T09:43:59;15.37;;;6.50;;
15814;SDS011;8008;50.024;8.172;2022-11-13T09:46:48;25.77;;;6.67;;
15814;SDS011;8008;50.024;8.172;2022-11-13T09:49:40;12.13;;;6.33;;
15814;SDS011;8008;50.024;8.172;2022-11-13T09:52:32;9.63;;;6.43;;
15814;SDS011;8008;50.024;8.172;2022-11-13T09:55:24;10.77;;;7.20;;
15814;SDS011;8008;50.024;8.172;2022-11-13T09:58:16;10.57;;;6.90;;
15814;SDS011;8008;50.024;8.172;2022-11-13T10:04:30;12.20;;;7.30;;
15814;SDS011;8008;50.024;8.172;2022-11-13T10:07:28;18.23;;;7.78;;
15814;SDS011;8008;50.024;8.172;2022-11-13T10:10:35;11.87;;;7.60;;
15814;SDS011;8008;50.024;8.172;2022-11-13T10:13:38;22.75;;;6.57;;
15814;SDS011;8008;50.024;8.172;2022-11-13T10:16:30;6.67;;;5.43;;
15814;SDS011;8008;50.024;8.172;2022-11-13T10:19:22;9.35;;;5.95;;
15814;SDS011;8008;50.024;8.172;2022-11-13T10:22:13;10.77;;;6.07;;
15814;SDS011;8008;50.024;8.172;2022-11-13T10:25:20;13.83;;;6.10;;
15814;SDS011;8008;50.024;8.172;2022-11-13T10:28:10;12.10;;;6.60;;
15814;SDS011;8008;50.024;8.172;2022-11-13T10:31:19;11.97;;;6.67;;
15814;SDS011;8008;50.024;8.172;2022-11-13T10:34:05;13.40;;;7.10;;
15814;SDS011;8008;50.024;8.172;2022-11-13T10:37:04;7.82;;;6.13;;
15814;SDS011;8008;50.024;8.172;2022-11-13T10:40:07;8.53;;;6.23;;
15814;SDS011;8008;50.024;8.172;2022-11-13T10:43:03;8.77;;;6.77;;
15814;SDS011;8008;50.024;8.172;2022-11-13T10:45:54;10.32;;;7.00;;
15814;SDS011;8008;50.024;8.172;2022-11-13T10:48:42;8.67;;;6.37;;
15814;SDS011;8008;50.024;8.172;2022-11-13T10:51:29;9.60;;;6.20;;
15814;SDS011;8008;50.024;8.172;2022-11-13T10:54:22;7.80;;;6.43;;
15814;SDS011;8008;50.024;8.172;2022-11-13T10:57:23;8.43;;;6.10;;
15814;SDS011;8008;50.024;8.172;2022-11-13T11:00:20;14.45;;;7.53;;
15814;SDS011;8008;50.024;8.172;2022-11-13T11:03:12;11.65;;;7.90;;
15814;SDS011;8008;50.024;8.172;2022-11-13T11:06:00;10.07;;;6.90;;
15814;SDS011;8008;50.024;8.172;2022-11-13T11:08:48;9.02;;;6.30;;
15814;SDS011;8008;50.024;8.172;2022-11-13T11:11:36;8.38;;;6.97;;
15814;SDS011;8008;50.024;8.172;2022-11-13T11:14:41;8.70;;;6.77;;
15814;SDS011;8008;50.024;8.172;2022-11-13T11:17:49;9.63;;;7.60;;
15814;SDS011;8008;50.024;8.172;2022-11-13T11:20:39;11.23;;;7.63;;
15814;SDS011;8008;50.024;8.172;2022-11-13T11:23:32;11.20;;;8.10;;
15814;SDS011;8008;50.024;8.172;2022-11-13T11:26:25;12.83;;;9.13;;
15814;SDS011;8008;50.024;8.172;2022-11-13T11:29:18;12.83;;;8.73;;
15814;SDS011;8008;50.024;8.172;2022-11-13T11:32:10;12.30;;;8.87;;
15814;SDS011;8008;50.024;8.172;2022-11-13T11:35:04;13.63;;;9.32;;
15814;SDS011;8008;50.024;8.172;2022-11-13T11:37:58;13.53;;;8.97;;
15814;SDS011;8008;50.024;8.172;2022-11-13T11:40:50;12.97;;;9.10;;
15814;SDS011;8008;50.024;8.172;2022-11-13T11:43:42;15.87;;;9.73;;
15814;SDS011;8008;50.024;8.172;2022-11-13T11:46:31;17.20;;;12.00;;
15814;SDS011;8008;50.024;8.172;2022-11-13T11:49:18;17.90;;;11.87;;
15814;SDS011;8008;50.024;8.172;2022-11-13T11:52:11;12.00;;;7.97;;
15814;SDS011;8008;50.024;8.172;2022-11-13T11:55:16;16.93;;;9.60;;
15814;SDS011;8008;50.024;8.172;2022-11-13T11:58:15;9.60;;;7.30;;
15814;SDS011;8008;50.024;8.172;2022-11-13T12:01:13;11.33;;;7.23;;
15814;SDS011;8008;50.024;8.172;2022-11-13T12:04:13;11.27;;;8.13;;
15814;SDS011;8008;50.024;8.172;2022-11-13T12:07:14;9.57;;;7.05;;
15814;SDS011;8008;50.024;8.172;2022-11-13T12:10:21;14.85;;;8.57;;
15814;SDS011;8008;50.024;8.172;2022-11-13T12:13:13;12.50;;;8.00;;
15814;SDS011;8008;50.024;8.172;2022-11-13T12:16:08;10.63;;;7.43;;
15814;SDS011;8008;50.024;8.172;2022-11-13T12:19:00;10.18;;;7.68;;
15814;SDS011;8008;50.024;8.172;2022-11-13T12:21:53;9.55;;;7.65;;
15814;SDS011;8008;50.024;8.172;2022-11-13T12:24:55;8.35;;;6.97;;
15814;SDS011;8008;50.024;8.172;2022-11-13T12:27:55;9.45;;;6.35;;
15814;SDS011;8008;50.024;8.172;2022-11-13T12:30:52;8.30;;;6.68;;
15814;SDS011;8008;50.024;8.172;2022-11-13T12:33:51;11.38;;;7.20;;
15814;SDS011;8008;50.024;8.172;2022-11-13T12:36:45;8.43;;;6.97;;
15814;SDS011;8008;50.024;8.172;2022-11-13T12:39:38;9.05;;;6.68;;
15814;SDS011;8008;50.024;8.172;2022-11-13T12:42:32;10.38;;;7.57;;
15814;SDS011;8008;50.024;8.172;2022-11-13T12:45:22;8.63;;;6.78;;
15814;SDS011;8008;50.024;8.172;2022-11-13T12:48:24;8.85;;;6.97;;
15814;SDS011;8008;50.024;8.172;2022-11-13T12:51:14;9.90;;;7.20;;
15814;SDS011;8008;50.024;8.172;2022-11-13T12:54:01;9.57;;;7.05;;
15814;SDS011;8008;50.024;8.172;2022-11-13T12:56:50;8.10;;;6.82;;
15814;SDS011;8008;50.024;8.172;2022-11-13T12:59:37;9.02;;;6.90;;
15814;SDS011;8008;50.024;8.172;2022-11-13T13:02:29;11.10;;;8.32;;
15814;SDS011;8008;50.024;8.172;2022-11-13T13:12:05;12.60;;;8.25;;
15814;SDS011;8008;50.024;8.172;2022-11-13T13:21:16;11.63;;;7.60;;
15814;SDS011;8008;50.024;8.172;2022-11-13T13:24:08;12.25;;;7.50;;
15814;SDS011;8008;50.024;8.172;2022-11-13T13:27:20;11.65;;;8.10;;
15814;SDS011;8008;50.024;8.172;2022-11-13T13:30:15;20.70;;;9.80;;
15814;SDS011;8008;50.024;8.172;2022-11-13T13:33:08;14.55;;;8.32;;
15814;SDS011;8008;50.024;8.172;2022-11-13T13:36:07;11.88;;;8.10;;
15814;SDS011;8008;50.024;8.172;2022-11-13T13:39:07;13.40;;;8.32;;
15814;SDS011;8008;50.024;8.172;2022-11-13T13:42:08;11.88;;;8.07;;
15814;SDS011;8008;50.024;8.172;2022-11-13T13:48:12;11.65;;;7.80;;
15814;SDS011;8008;50.024;8.172;2022-11-13T13:51:01;11.20;;;7.90;;
15814;SDS011;8008;50.024;8.172;2022-11-13T13:53:57;10.43;;;6.97;;
15814;SDS011;8008;50.024;8.172;2022-11-13T13:56:45;12.35;;;7.63;;
15814;SDS011;8008;50.024;8.172;2022-11-13T13:59:33;10.55;;;7.45;;
15814;SDS011;8008;50.024;8.172;2022-11-13T14:02:22;12.18;;;7.80;;
15814;SDS011;8008;50.024;8.172;2022-11-13T14:05:16;12.77;;;7.85;;
15814;SDS011;8008;50.024;8.172;2022-11-13T14:08:14;14.27;;;8.00;;
15814;SDS011;8008;50.024;8.172;2022-11-13T14:11:02;10.48;;;7.50;;
15814;SDS011;8008;50.024;8.172;2022-11-13T14:14:05;10.73;;;7.13;;
15814;SDS011;8008;50.024;8.172;2022-11-13T14:16:53;10.02;;;7.40;;
15814;SDS011;8008;50.024;8.172;2022-11-13T14:19:47;9.73;;;6.65;;
15814;SDS011;8008;50.024;8.172;2022-11-13T14:22:34;10.82;;;6.72;;
15814;SDS011;8008;50.024;8.172;2022-11-13T14:25:22;10.32;;;7.10;;
15814;SDS011;8008;50.024;8.172;2022-11-13T14:28:12;9.32;;;6.82;;
15814;SDS011;8008;50.024;8.172;2022-11-13T14:31:01;9.18;;;7.18;;
15814;SDS011;8008;50.024;8.172;2022-11-13T14:33:49;11.38;;;6.90;;
15814;SDS011;8008;50.024;8.172;2022-11-13T14:36:37;8.90;;;6.60;;
15814;SDS011;8008;50.024;8.172;2022-11-13T14:39:25;7.45;;;6.07;;
15814;SDS011;8008;50.024;8.172;2022-11-13T14:42:15;7.93;;;5.63;;
15814;SDS011;8008;50.024;8.172;2022-11-13T14:45:10;7.72;;;5.93;;
15814;SDS011;8008;50.024;8.172;2022-11-13T14:48:00;7.15;;;5.60;;
15814;SDS011;8008;50.024;8.172;2022-11-13T14:50:48;7.55;;;6.10;;
15814;SDS011;8008;50.024;8.172;2022-11-13T14:53:38;8.55;;;6.63;;
15814;SDS011;8008;50.024;8.172;2022-11-13T14:56:30;10.50;;;7.28;;
15814;SDS011;8008;50.024;8.172;2022-11-13T14:59:23;11.75;;;7.85;;
15814;SDS011;8008;50.024;8.172;2022-11-13T15:02:11;10.27;;;7.72;;
15814;SDS011;8008;50.024;8.172;2022-11-13T15:04:58;9.52;;;6.63;;
15814;SDS011;8008;50.024;8.172;2022-11-13T15:07:44;10.00;;;7.05;;
15814;SDS011;8008;50.024;8.172;2022-11-13T15:10:32;15.93;;;8.35;;
15814;SDS011;8008;50.024;8.172;2022-11-13T15:13:19;10.43;;;7.78;;
15814;SDS011;8008;50.024;8.172;2022-11-13T15:16:06;11.23;;;7.28;;
15814;SDS011;8008;50.024;8.172;2022-11-13T15:18:58;9.95;;;7.55;;
15814;SDS011;8008;50.024;8.172;2022-11-13T15:21:47;10.75;;;7.50;;
15814;SDS011;8008;50.024;8.172;2022-11-13T15:24:53;9.77;;;7.10;;
15814;SDS011;8008;50.024;8.172;2022-11-13T15:27:41;11.93;;;6.90;;
15814;SDS011;8008;50.024;8.172;2022-11-13T15:30:27;8.32;;;6.38;;
15814;SDS011;8008;50.024;8.172;2022-11-13T15:33:14;10.98;;;7.15;;
15814;SDS011;8008;50.024;8.172;2022-11-13T15:36:01;13.95;;;9.10;;
15814;SDS011;8008;50.024;8.172;2022-11-13T15:38:48;14.77;;;9.55;;
15814;SDS011;8008;50.024;8.172;2022-11-13T15:41:34;11.85;;;8.70;;
15814;SDS011;8008;50.024;8.172;2022-11-13T15:44:22;14.85;;;8.32;;
15814;SDS011;8008;50.024;8.172;2022-11-13T15:47:14;13.52;;;8.52;;
15814;SDS011;8008;50.024;8.172;2022-11-13T15:50:10;14.65;;;8.68;;
15814;SDS011;8008;50.024;8.172;2022-11-13T15:52:59;15.93;;;8.82;;
15814;SDS011;8008;50.024;8.172;2022-11-13T15:55:49;11.98;;;8.73;;
15814;SDS011;8008;50.024;8.172;2022-11-13T15:58:36;10.75;;;8.18;;
15814;SDS011;8008;50.024;8.172;2022-11-13T16:01:24;16.92;;;8.52;;
15814;SDS011;8008;50.024;8.172;2022-11-13T16:04:10;15.35;;;8.38;;
15814;SDS011;8008;50.024;8.172;2022-11-13T16:06:56;14.93;;;8.40;;
15814;SDS011;8008;50.024;8.172;2022-11-13T16:09:43;14.73;;;9.63;;
15814;SDS011;8008;50.024;8.172;2022-11-13T16:12:30;18.45;;;9.40;;
15814;SDS011;8008;50.024;8.172;2022-11-13T16:15:16;14.23;;;9.35;;
15814;SDS011;8008;50.024;8.172;2022-11-13T16:18:04;13.88;;;8.82;;
15814;SDS011;8008;50.024;8.172;2022-11-13T16:20:59;16.05;;;8.88;;
15814;SDS011;8008;50.024;8.172;2022-11-13T16:23:46;12.63;;;8.88;;
15814;SDS011;8008;50.024;8.172;2022-11-13T16:26:32;17.95;;;11.68;;
15814;SDS011;8008;50.024;8.172;2022-11-13T16:29:20;19.50;;;11.75;;
15814;SDS011;8008;50.024;8.172;2022-11-13T16:32:09;17.25;;;11.50;;
15814;SDS011;8008;50.024;8.172;2022-11-13T16:35:01;17.67;;;10.95;;
15814;SDS011;8008;50.024;8.172;2022-11-13T16:37:48;15.40;;;11.00;;
15814;SDS011;8008;50.024;8.172;2022-11-13T16:40:35;27.73;;;17.27;;
15814;SDS011;8008;50.024;8.172;2022-11-13T16:43:21;30.60;;;18.60;;
15814;SDS011;8008;50.024;8.172;2022-11-13T16:46:14;30.45;;;17.35;;
15814;SDS011;8008;50.024;8.172;2022-11-13T16:49:04;31.63;;;18.08;;
15814;SDS011;8008;50.024;8.172;2022-11-13T16:51:51;24.27;;;15.45;;
15814;SDS011;8008;50.024;8.172;2022-11-13T16:54:39;26.13;;;17.37;;
15814;SDS011;8008;50.024;8.172;2022-11-13T16:57:25;21.40;;;14.25;;
15814;SDS011;8008;50.024;8.172;2022-11-13T17:00:12;22.45;;;14.13;;
15814;SDS011;8008;50.024;8.172;2022-11-13T17:03:00;19.95;;;12.65;;
15814;SDS011;8008;50.024;8.172;2022-11-13T17:05:49;21.02;;;13.85;;
15814;SDS011;8008;50.024;8.172;2022-11-13T17:08:37;18.92;;;13.05;;
15814;SDS011;8008;50.024;8.172;2022-11-13T17:11:24;20.38;;;14.18;;
15814;SDS011;8008;50.024;8.172;2022-11-13T17:14:12;22.08;;;16.45;;
15814;SDS011;8008;50.024;8.172;2022-11-13T17:16:58;25.38;;;17.15;;
15814;SDS011;8008;50.024;8.172;2022-11-13T17:19:45;27.38;;;18.15;;
15814;SDS011;8008;50.024;8.172;2022-11-13T17:22:31;42.03;;;28.92;;
15814;SDS011;8008;50.024;8.172;2022-11-13T17:25:19;45.42;;;31.42;;
15814;SDS011;8008;50.024;8.172;2022-11-13T17:28:10;32.97;;;22.73;;
15814;SDS011;8008;50.024;8.172;2022-11-13T17:30:59;40.63;;;27.70;;
15814;SDS011;8008;50.024;8.172;2022-11-13T17:33:47;52.28;;;33.80;;
15814;SDS011;8008;50.024;8.172;2022-11-13T17:36:36;41.85;;;28.60;;
15814;SDS011;8008;50.024;8.172;2022-11-13T17:39:23;59.63;;;34.15;;
15814;SDS011;8008;50.024;8.172;2022-11-13T17:42:10;50.28;;;31.80;;
15814;SDS011;8008;50.024;8.172;2022-11-13T17:44:56;36.70;;;23.73;;
15814;SDS011;8008;50.024;8.172;2022-11-13T17:47:43;34.38;;;21.50;;
15814;SDS011;8008;50.024;8.172;2022-11-13T17:50:29;31.42;;;19.55;;
15814;SDS011;8008;50.024;8.172;2022-11-13T17:53:15;23.90;;;17.73;;
15814;SDS011;8008;50.024;8.172;2022-11-13T17:56:02;25.85;;;16.60;;
15814;SDS011;8008;50.024;8.172;2022-11-13T17:58:53;22.60;;;16.15;;
15814;SDS011;8008;50.024;8.172;2022-11-13T18:01:39;24.15;;;15.30;;
15814;SDS011;8008;50.024;8.172;2022-11-13T18:04:26;20.67;;;14.52;;
15814;SDS011;8008;50.024;8.172;2022-11-13T18:07:12;19.27;;;13.60;;
15814;SDS011;8008;50.024;8.172;2022-11-13T18:09:58;18.25;;;13.23;;
15814;SDS011;8008;50.024;8.172;2022-11-13T18:12:47;18.75;;;13.48;;
15814;SDS011;8008;50.024;8.172;2022-11-13T18:16:05;18.85;;;13.70;;
15814;SDS011;8008;50.024;8.172;2022-11-13T18:18:53;22.80;;;14.57;;
15814;SDS011;8008;50.024;8.172;2022-11-13T18:21:40;30.15;;;17.73;;
15814;SDS011;8008;50.024;8.172;2022-11-13T18:24:26;28.23;;;19.13;;
15814;SDS011;8008;50.024;8.172;2022-11-13T18:27:13;26.92;;;17.20;;
15814;SDS011;8008;50.024;8.172;2022-11-13T18:29:59;25.30;;;15.98;;
15814;SDS011;8008;50.024;8.172;2022-11-13T18:32:47;25.05;;;16.05;;
15814;SDS011;8008;50.024;8.172;2022-11-13T18:35:34;30.50;;;18.38;;
15814;SDS011;8008;50.024;8.172;2022-11-13T18:38:20;27.00;;;17.50;;
15814;SDS011;8008;50.024;8.172;2022-11-13T18:41:07;25.42;;;16.85;;
15814;SDS011;8008;50.024;8.172;2022-11-13T18:43:54;26.60;;;16.77;;
15814;SDS011;8008;50.024;8.172;2022-11-13T18:46:41;49.58;;;27.02;;
15814;SDS011;8008;50.024;8.172;2022-11-13T18:49:29;48.08;;;27.13;;
15814;SDS011;8008;50.024;8.172;2022-11-13T18:52:15;40.20;;;24.20;;
15814;SDS011;8008;50.024;8.172;2022-11-13T18:55:02;44.90;;;25.75;;
15814;SDS011;8008;50.024;8.172;2022-11-13T18:57:49;40.70;;;24.92;;
15814;SDS011;8008;50.024;8.172;2022-11-13T19:00:35;43.85;;;25.92;;
15814;SDS011;8008;50.024;8.172;2022-11-13T19:03:22;44.00;;;25.47;;
15814;SDS011;8008;50.024;8.172;2022-11-13T19:06:15;31.75;;;18.77;;
15814;SDS011;8008;50.024;8.172;2022-11-13T19:09:03;33.65;;;20.35;;
15814;SDS011;8008;50.024;8.172;2022-11-13T19:11:50;31.67;;;19.77;;
15814;SDS011;8008;50.024;8.172;2022-11-13T19:14:39;38.83;;;21.73;;
15814;SDS011;8008;50.024;8.172;2022-11-13T19:17:25;35.55;;;21.85;;
15814;SDS011;8008;50.024;8.172;2022-11-13T19:20:11;28.25;;;17.25;;
15814;SDS011;8008;50.024;8.172;2022-11-13T19:22:59;31.75;;;20.25;;
15814;SDS011;8008;50.024;8.172;2022-11-13T19:25:53;34.60;;;22.25;;
15814;SDS011;8008;50.024;8.172;2022-11-13T19:28:39;33.45;;;20.70;;
15814;SDS011;8008;50.024;8.172;2022-11-13T19:31:26;32.80;;;20.92;;
15814;SDS011;8008;50.024;8.172;2022-11-13T19:34:12;35.00;;;19.92;;
15814;SDS011;8008;50.024;8.172;2022-11-13T19:36:59;36.28;;;21.42;;
15814;SDS011;8008;50.024;8.172;2022-11-13T19:39:47;39.22;;;23.20;;
15814;SDS011;8008;50.024;8.172;2022-11-13T19:42:33;40.17;;;22.58;;
15814;SDS011;8008;50.024;8.172;2022-11-13T19:45:26;34.05;;;20.33;;
15814;SDS011;8008;50.024;8.172;2022-11-13T19:48:13;34.57;;;20.13;;
15814;SDS011;8008;50.024;8.172;2022-11-13T19:51:03;29.80;;;18.65;;
15814;SDS011;8008;50.024;8.172;2022-11-13T19:53:51;32.13;;;18.48;;
15814;SDS011;8008;50.024;8.172;2022-11-13T19:56:39;36.70;;;20.50;;
15814;SDS011;8008;50.024;8.172;2022-11-13T19:59:26;36.33;;;19.88;;
15814;SDS011;8008;50.024;8.172;2022-11-13T20:02:12;34.57;;;18.97;;
15814;SDS011;8008;50.024;8.172;2022-11-13T20:04:59;30.80;;;17.40;;
15814;SDS011;8008;50.024;8.172;2022-11-13T20:07:45;33.23;;;18.90;;
15814;SDS011;8008;50.024;8.172;2022-11-13T20:10:32;32.03;;;18.27;;
15814;SDS011;8008;50.024;8.172;2022-11-13T20:13:20;32.17;;;18.97;;
15814;SDS011;8008;50.024;8.172;2022-11-13T20:16:07;36.45;;;20.63;;
15814;SDS011;8008;50.024;8.172;2022-11-13T20:18:55;32.63;;;19.03;;
15814;SDS011;8008;50.024;8.172;2022-11-13T20:21:42;33.67;;;19.37;;
15814;SDS011;8008;50.024;8.172;2022-11-13T20:24:28;40.58;;;23.48;;
15814;SDS011;8008;50.024;8.172;2022-11-13T20:27:15;31.70;;;19.23;;
15814;SDS011;8008;50.024;8.172;2022-11-13T20:30:03;40.15;;;21.67;;
15814;SDS011;8008;50.024;8.172;2022-11-13T20:32:50;43.20;;;20.70;;
15814;SDS011;8008;50.024;8.172;2022-11-13T20:35:36;34.53;;;20.13;;
15814;SDS011;8008;50.024;8.172;2022-11-13T20:38:23;37.03;;;19.57;;
15814;SDS011;8008;50.024;8.172;2022-11-13T20:41:10;37.67;;;18.87;;
15814;SDS011;8008;50.024;8.172;2022-11-13T20:43:57;39.65;;;19.17;;
15814;SDS011;8008;50.024;8.172;2022-11-13T20:46:46;37.20;;;17.67;;
15814;SDS011;8008;50.024;8.172;2022-11-13T20:49:33;25.10;;;15.37;;
15814;SDS011;8008;50.024;8.172;2022-11-13T20:52:19;25.50;;;14.50;;
15814;SDS011;8008;50.024;8.172;2022-11-13T20:55:06;23.57;;;13.70;;
15814;SDS011;8008;50.024;8.172;2022-11-13T20:57:53;22.70;;;13.90;;
15814;SDS011;8008;50.024;8.172;2022-11-13T21:00:39;21.60;;;12.60;;
15814;SDS011;8008;50.024;8.172;2022-11-13T21:03:27;24.73;;;14.43;;
15814;SDS011;8008;50.024;8.172;2022-11-13T21:06:14;21.03;;;11.80;;
15814;SDS011;8008;50.024;8.172;2022-11-13T21:09:02;17.63;;;11.33;;
15814;SDS011;8008;50.024;8.172;2022-11-13T21:11:49;17.50;;;9.73;;
15814;SDS011;8008;50.024;8.172;2022-11-13T21:14:35;14.27;;;9.03;;
15814;SDS011;8008;50.024;8.172;2022-11-13T21:17:22;13.73;;;7.97;;
15814;SDS011;8008;50.024;8.172;2022-11-13T21:20:10;12.00;;;6.73;;